Delta Virtual Airport Information Service

Havana Jose Marti International Airport

ICAO: MUHA Country: Cuba
Latitude: 22.9891 Longitude: -82.409
Latest Arrival : JBU1499 (KFLL-MUHA) Latest Departure : DAC7451 (MUHA-KMIA)


WX CaptureLIVE
Data provided by noaa.gov | Fetched at 01:11:57

METAR : MUHA 120455Z 09004KT 9000 FEW040 25/22 Q1017

TAF : MUHA 120500Z 1206/1306 09005KT 9000 FEW020 BECMG 1216/1218 06012KT BKN025


Runway Data for MUHA
Data provided by openaviationdata.com

Runway ID Mag Var Hdg Length Elevation Surface ILS Freq ILS Id ILS Slope
6 -3 57° 13136 ft 210 ft Asphalt 110.5 IHA 3
24 -3 237° 13136 ft 210 ft Asphalt -- -- --

Havana Jose Marti International Airport, Cuba
Use only for reference purposes



Not for navigational purposes.